Gypsy, Kentucky
Current Conditions -  °F | °C
As of 10:35 PM on Saturday 22 Nov 2014 (Local Time) from KSJS Reporting Station
Clear Clear  
Wind Chill: 11°   Ceiling: Unl
Heat Index: 11°   Visibility: 10mi
Dew Point: -4°   Wind: 8mph
Humidity: 36%   Direction: 190°S
Pressure: 30.15"   Gusts: NA
Location:  37.6421°N, 82.9499°W
Report Text: KSJS 230335Z AUTO 19007KT 10SM CLR 11/M04 A3015 RMK AO2 T01111037
Loading
Personal Weather Stations






























Interactive Weather Map New forecast layout! Learn more

10-Day Weather Forecast

Advertisements
Track Severe Weather on mobile